Terminal Aerodrome Forecast
Issued by NWS

Home | Current Version | Previous Version | Text Only | Print | Product List | Glossary Off
Versions: 1 2 3 4 5 6 7 8 9 10 11 12 13 14 15 16 17 18 19 20

589
FTUS43 KBIS 281731
TAFMOT
TAF
KMOT 281731Z 2818/2918 07006KT P6SM OVC020
     FM290000 35005KT P6SM VCTS OVC030CB
     FM290300 27005KT P6SM OVC030
     FM290800 27007KT P6SM FEW070=

USA.gov is the U.S. government's official web portal to all federal, state and local government web resources and services.